sensor_id;sensor_type;location;lat;lon;timestamp;temperature;humidity
67093;SHT31;54011;50.772;7.730;2023-06-10T00:00:12;22.96;55.50
67093;SHT31;54011;50.772;7.730;2023-06-10T00:02:41;22.85;55.61
67093;SHT31;54011;50.772;7.730;2023-06-10T00:05:09;22.90;55.45
67093;SHT31;54011;50.772;7.730;2023-06-10T00:07:35;22.86;55.44
67093;SHT31;54011;50.772;7.730;2023-06-10T00:10:04;23.02;55.46
67093;SHT31;54011;50.772;7.730;2023-06-10T00:12:31;23.14;54.88
67093;SHT31;54011;50.772;7.730;2023-06-10T00:15:03;22.95;55.23
67093;SHT31;54011;50.772;7.730;2023-06-10T00:17:30;22.98;55.62
67093;SHT31;54011;50.772;7.730;2023-06-10T00:19:56;23.03;55.19
67093;SHT31;54011;50.772;7.730;2023-06-10T00:22:23;22.81;55.72
67093;SHT31;54011;50.772;7.730;2023-06-10T00:24:49;22.66;55.96
67093;SHT31;54011;50.772;7.730;2023-06-10T00:27:16;22.72;56.22
67093;SHT31;54011;50.772;7.730;2023-06-10T00:29:41;22.68;56.17
67093;SHT31;54011;50.772;7.730;2023-06-10T00:32:08;22.69;56.20
67093;SHT31;54011;50.772;7.730;2023-06-10T00:34:34;22.69;56.29
67093;SHT31;54011;50.772;7.730;2023-06-10T00:37:00;22.71;56.30
67093;SHT31;54011;50.772;7.730;2023-06-10T00:39:26;22.56;56.66
67093;SHT31;54011;50.772;7.730;2023-06-10T00:41:52;22.47;56.82
67093;SHT31;54011;50.772;7.730;2023-06-10T00:44:17;22.61;56.49
67093;SHT31;54011;50.772;7.730;2023-06-10T00:46:43;22.56;56.52
67093;SHT31;54011;50.772;7.730;2023-06-10T00:49:10;22.45;56.80
67093;SHT31;54011;50.772;7.730;2023-06-10T00:51:36;22.41;56.80
67093;SHT31;54011;50.772;7.730;2023-06-10T00:54:02;22.30;57.16
67093;SHT31;54011;50.772;7.730;2023-06-10T00:56:28;22.41;57.12
67093;SHT31;54011;50.772;7.730;2023-06-10T00:58:54;22.25;57.36
67093;SHT31;54011;50.772;7.730;2023-06-10T01:01:20;22.37;57.04
67093;SHT31;54011;50.772;7.730;2023-06-10T01:03:45;22.24;57.38
67093;SHT31;54011;50.772;7.730;2023-06-10T01:11:34;22.17;57.73
67093;SHT31;54011;50.772;7.730;2023-06-10T01:14:03;22.07;57.96
67093;SHT31;54011;50.772;7.730;2023-06-10T01:16:30;22.05;58.05
67093;SHT31;54011;50.772;7.730;2023-06-10T01:18:56;22.00;58.23
67093;SHT31;54011;50.772;7.730;2023-06-10T01:21:24;21.98;58.36
67093;SHT31;54011;50.772;7.730;2023-06-10T01:23:52;21.97;58.24
67093;SHT31;54011;50.772;7.730;2023-06-10T01:26:22;22.03;58.28
67093;SHT31;54011;50.772;7.730;2023-06-10T01:29:02;22.01;58.45
67093;SHT31;54011;50.772;7.730;2023-06-10T01:32:12;21.87;58.69
67093;SHT31;54011;50.772;7.730;2023-06-10T01:34:42;21.94;58.63
67093;SHT31;54011;50.772;7.730;2023-06-10T01:37:09;21.98;58.44
67093;SHT31;54011;50.772;7.730;2023-06-10T01:39:38;21.96;58.39
67093;SHT31;54011;50.772;7.730;2023-06-10T01:42:04;21.87;58.65
67093;SHT31;54011;50.772;7.730;2023-06-10T01:44:31;21.82;58.67
67093;SHT31;54011;50.772;7.730;2023-06-10T01:46:57;21.66;59.18
67093;SHT31;54011;50.772;7.730;2023-06-10T01:49:25;21.76;59.04
67093;SHT31;54011;50.772;7.730;2023-06-10T01:51:51;21.59;59.26
67093;SHT31;54011;50.772;7.730;2023-06-10T01:54:17;21.66;59.39
67093;SHT31;54011;50.772;7.730;2023-06-10T01:56:45;21.79;58.91
67093;SHT31;54011;50.772;7.730;2023-06-10T01:59:11;21.86;58.68
67093;SHT31;54011;50.772;7.730;2023-06-10T02:01:36;21.64;59.33
67093;SHT31;54011;50.772;7.730;2023-06-10T02:04:02;21.31;60.00
67093;SHT31;54011;50.772;7.730;2023-06-10T02:06:31;21.29;60.16
67093;SHT31;54011;50.772;7.730;2023-06-10T02:08:56;21.39;60.08
67093;SHT31;54011;50.772;7.730;2023-06-10T02:11:22;21.41;60.11
67093;SHT31;54011;50.772;7.730;2023-06-10T02:13:48;21.28;60.11
67093;SHT31;54011;50.772;7.730;2023-06-10T02:16:15;21.39;59.91
67093;SHT31;54011;50.772;7.730;2023-06-10T02:18:43;21.45;59.76
67093;SHT31;54011;50.772;7.730;2023-06-10T02:21:08;21.31;60.20
67093;SHT31;54011;50.772;7.730;2023-06-10T02:23:35;21.26;60.38
67093;SHT31;54011;50.772;7.730;2023-06-10T02:26:03;21.43;59.68
67093;SHT31;54011;50.772;7.730;2023-06-10T02:28:29;21.29;60.11
67093;SHT31;54011;50.772;7.730;2023-06-10T02:30:57;21.12;60.30
67093;SHT31;54011;50.772;7.730;2023-06-10T02:33:25;21.02;60.54
67093;SHT31;54011;50.772;7.730;2023-06-10T02:35:50;21.23;60.05
67093;SHT31;54011;50.772;7.730;2023-06-10T02:38:16;21.42;59.64
67093;SHT31;54011;50.772;7.730;2023-06-10T02:40:42;21.28;60.14
67093;SHT31;54011;50.772;7.730;2023-06-10T02:43:09;21.26;60.00
67093;SHT31;54011;50.772;7.730;2023-06-10T02:45:35;21.08;60.24
67093;SHT31;54011;50.772;7.730;2023-06-10T02:48:03;21.13;60.21
67093;SHT31;54011;50.772;7.730;2023-06-10T02:50:30;21.11;60.17
67093;SHT31;54011;50.772;7.730;2023-06-10T02:53:13;21.23;59.84
67093;SHT31;54011;50.772;7.730;2023-06-10T02:55:44;21.05;60.23
67093;SHT31;54011;50.772;7.730;2023-06-10T02:58:12;21.04;60.02
67093;SHT31;54011;50.772;7.730;2023-06-10T03:00:39;21.13;59.97
67093;SHT31;54011;50.772;7.730;2023-06-10T03:03:08;20.94;60.32
67093;SHT31;54011;50.772;7.730;2023-06-10T03:05:42;20.94;60.44
67093;SHT31;54011;50.772;7.730;2023-06-10T03:08:08;20.71;60.90
67093;SHT31;54011;50.772;7.730;2023-06-10T03:10:37;20.73;60.66
67093;SHT31;54011;50.772;7.730;2023-06-10T03:13:03;20.51;61.01
67093;SHT31;54011;50.772;7.730;2023-06-10T03:15:29;20.34;61.67
67093;SHT31;54011;50.772;7.730;2023-06-10T03:17:59;20.23;61.90
67093;SHT31;54011;50.772;7.730;2023-06-10T03:20:25;20.13;62.34
67093;SHT31;54011;50.772;7.730;2023-06-10T03:22:53;20.14;62.10
67093;SHT31;54011;50.772;7.730;2023-06-10T03:25:18;20.09;62.32
67093;SHT31;54011;50.772;7.730;2023-06-10T03:27:48;20.06;62.40
67093;SHT31;54011;50.772;7.730;2023-06-10T03:30:14;19.87;62.51
67093;SHT31;54011;50.772;7.730;2023-06-10T03:32:41;19.54;63.50
67093;SHT31;54011;50.772;7.730;2023-06-10T03:35:09;19.30;64.13
67093;SHT31;54011;50.772;7.730;2023-06-10T03:37:36;19.38;64.52
67093;SHT31;54011;50.772;7.730;2023-06-10T03:40:03;19.54;64.00
67093;SHT31;54011;50.772;7.730;2023-06-10T03:42:32;19.61;63.99
67093;SHT31;54011;50.772;7.730;2023-06-10T03:44:58;19.51;63.68
67093;SHT31;54011;50.772;7.730;2023-06-10T03:47:26;19.78;63.23
67093;SHT31;54011;50.772;7.730;2023-06-10T03:49:52;19.59;63.53
67093;SHT31;54011;50.772;7.730;2023-06-10T03:52:18;19.61;63.52
67093;SHT31;54011;50.772;7.730;2023-06-10T03:54:44;19.64;63.30
67093;SHT31;54011;50.772;7.730;2023-06-10T03:57:10;19.83;63.16
67093;SHT31;54011;50.772;7.730;2023-06-10T03:59:36;19.92;62.82
67093;SHT31;54011;50.772;7.730;2023-06-10T04:02:01;19.97;62.36
67093;SHT31;54011;50.772;7.730;2023-06-10T04:04:29;20.09;62.12
67093;SHT31;54011;50.772;7.730;2023-06-10T04:06:55;19.76;62.95
67093;SHT31;54011;50.772;7.730;2023-06-10T04:09:21;19.82;62.63
67093;SHT31;54011;50.772;7.730;2023-06-10T04:11:48;19.85;62.64
67093;SHT31;54011;50.772;7.730;2023-06-10T04:14:15;19.82;62.78
67093;SHT31;54011;50.772;7.730;2023-06-10T04:16:43;19.90;62.70
67093;SHT31;54011;50.772;7.730;2023-06-10T04:19:09;19.96;62.60
67093;SHT31;54011;50.772;7.730;2023-06-10T04:21:35;20.14;62.58
67093;SHT31;54011;50.772;7.730;2023-06-10T04:24:01;20.09;62.27
67093;SHT31;54011;50.772;7.730;2023-06-10T04:26:27;20.26;61.77
67093;SHT31;54011;50.772;7.730;2023-06-10T04:28:53;19.95;62.53
67093;SHT31;54011;50.772;7.730;2023-06-10T04:31:19;20.02;62.29
67093;SHT31;54011;50.772;7.730;2023-06-10T04:33:46;20.16;61.86
67093;SHT31;54011;50.772;7.730;2023-06-10T04:36:13;20.30;61.58
67093;SHT31;54011;50.772;7.730;2023-06-10T04:38:39;20.45;61.47
67093;SHT31;54011;50.772;7.730;2023-06-10T04:41:06;20.54;61.49
67093;SHT31;54011;50.772;7.730;2023-06-10T04:43:34;20.68;61.13
67093;SHT31;54011;50.772;7.730;2023-06-10T04:46:00;20.81;60.67
67093;SHT31;54011;50.772;7.730;2023-06-10T04:48:28;20.87;60.87
67093;SHT31;54011;50.772;7.730;2023-06-10T04:50:54;20.91;60.35
67093;SHT31;54011;50.772;7.730;2023-06-10T04:53:21;20.94;60.53
67093;SHT31;54011;50.772;7.730;2023-06-10T04:55:47;20.95;60.34
67093;SHT31;54011;50.772;7.730;2023-06-10T04:58:14;20.91;60.73
67093;SHT31;54011;50.772;7.730;2023-06-10T05:00:39;21.01;60.31
67093;SHT31;54011;50.772;7.730;2023-06-10T05:03:05;20.99;60.33
67093;SHT31;54011;50.772;7.730;2023-06-10T05:05:30;21.16;60.08
67093;SHT31;54011;50.772;7.730;2023-06-10T05:07:56;21.16;60.23
67093;SHT31;54011;50.772;7.730;2023-06-10T05:10:22;21.23;59.66
67093;SHT31;54011;50.772;7.730;2023-06-10T05:12:49;21.32;59.94
67093;SHT31;54011;50.772;7.730;2023-06-10T05:15:14;21.54;59.15
67093;SHT31;54011;50.772;7.730;2023-06-10T05:17:40;21.54;58.91
67093;SHT31;54011;50.772;7.730;2023-06-10T05:20:07;21.66;59.38
67093;SHT31;54011;50.772;7.730;2023-06-10T05:22:33;21.62;60.25
67093;SHT31;54011;50.772;7.730;2023-06-10T05:25:00;21.66;60.00
67093;SHT31;54011;50.772;7.730;2023-06-10T05:27:26;21.83;59.37
67093;SHT31;54011;50.772;7.730;2023-06-10T05:29:52;21.77;59.51
67093;SHT31;54011;50.772;7.730;2023-06-10T05:32:18;21.96;58.48
67093;SHT31;54011;50.772;7.730;2023-06-10T05:34:43;22.00;58.60
67093;SHT31;54011;50.772;7.730;2023-06-10T05:37:09;21.94;58.02
67093;SHT31;54011;50.772;7.730;2023-06-10T05:39:38;21.94;56.75
67093;SHT31;54011;50.772;7.730;2023-06-10T05:42:06;22.15;56.59
67093;SHT31;54011;50.772;7.730;2023-06-10T05:44:32;22.34;55.93
67093;SHT31;54011;50.772;7.730;2023-06-10T05:46:58;22.66;55.28
67093;SHT31;54011;50.772;7.730;2023-06-10T05:49:24;22.90;54.33
67093;SHT31;54011;50.772;7.730;2023-06-10T05:51:50;23.07;54.37
67093;SHT31;54011;50.772;7.730;2023-06-10T05:54:18;23.17;54.01
67093;SHT31;54011;50.772;7.730;2023-06-10T05:56:44;23.10;54.21
67093;SHT31;54011;50.772;7.730;2023-06-10T05:59:10;23.31;54.01
67093;SHT31;54011;50.772;7.730;2023-06-10T06:01:37;23.46;53.85
67093;SHT31;54011;50.772;7.730;2023-06-10T06:04:03;23.67;53.28
67093;SHT31;54011;50.772;7.730;2023-06-10T06:06:28;23.94;53.33
67093;SHT31;54011;50.772;7.730;2023-06-10T06:08:54;23.67;52.89
67093;SHT31;54011;50.772;7.730;2023-06-10T06:11:21;24.12;52.63
67093;SHT31;54011;50.772;7.730;2023-06-10T06:13:47;24.21;52.61
67093;SHT31;54011;50.772;7.730;2023-06-10T06:16:13;24.01;52.29
67093;SHT31;54011;50.772;7.730;2023-06-10T06:18:42;24.21;51.66
67093;SHT31;54011;50.772;7.730;2023-06-10T06:21:09;24.44;51.83
67093;SHT31;54011;50.772;7.730;2023-06-10T06:23:35;24.52;51.51
67093;SHT31;54011;50.772;7.730;2023-06-10T06:26:00;24.57;51.80
67093;SHT31;54011;50.772;7.730;2023-06-10T06:28:27;24.53;51.48
67093;SHT31;54011;50.772;7.730;2023-06-10T06:30:55;24.79;50.95
67093;SHT31;54011;50.772;7.730;2023-06-10T06:33:22;25.41;50.59
67093;SHT31;54011;50.772;7.730;2023-06-10T06:35:47;25.03;51.06
67093;SHT31;54011;50.772;7.730;2023-06-10T06:38:14;25.24;50.59
67093;SHT31;54011;50.772;7.730;2023-06-10T06:40:39;25.46;50.41
67093;SHT31;54011;50.772;7.730;2023-06-10T06:43:06;25.43;50.13
67093;SHT31;54011;50.772;7.730;2023-06-10T06:45:54;25.65;50.11
67093;SHT31;54011;50.772;7.730;2023-06-10T06:48:19;25.86;48.93
67093;SHT31;54011;50.772;7.730;2023-06-10T06:50:49;25.99;48.79
67093;SHT31;54011;50.772;7.730;2023-06-10T06:53:14;26.07;48.57
67093;SHT31;54011;50.772;7.730;2023-06-10T06:55:40;26.36;48.26
67093;SHT31;54011;50.772;7.730;2023-06-10T06:58:06;26.26;47.82
67093;SHT31;54011;50.772;7.730;2023-06-10T07:00:32;26.34;48.35
67093;SHT31;54011;50.772;7.730;2023-06-10T07:02:59;26.07;47.54
67093;SHT31;54011;50.772;7.730;2023-06-10T07:05:25;26.33;48.38
67093;SHT31;54011;50.772;7.730;2023-06-10T07:07:54;26.44;47.57
67093;SHT31;54011;50.772;7.730;2023-06-10T07:10:22;26.74;47.25
67093;SHT31;54011;50.772;7.730;2023-06-10T07:12:49;26.82;48.10
67093;SHT31;54011;50.772;7.730;2023-06-10T07:15:15;27.30;47.27
67093;SHT31;54011;50.772;7.730;2023-06-10T07:17:41;26.96;47.46
67093;SHT31;54011;50.772;7.730;2023-06-10T07:20:07;26.74;47.81
67093;SHT31;54011;50.772;7.730;2023-06-10T07:22:32;26.94;47.60
67093;SHT31;54011;50.772;7.730;2023-06-10T07:24:58;27.45;46.78
67093;SHT31;54011;50.772;7.730;2023-06-10T07:27:24;27.46;46.48
67093;SHT31;54011;50.772;7.730;2023-06-10T07:29:50;27.96;46.51
67093;SHT31;54011;50.772;7.730;2023-06-10T07:32:17;27.54;46.55
67093;SHT31;54011;50.772;7.730;2023-06-10T07:34:42;27.40;46.67
67093;SHT31;54011;50.772;7.730;2023-06-10T07:37:07;27.87;46.11
67093;SHT31;54011;50.772;7.730;2023-06-10T07:39:34;28.04;45.91
67093;SHT31;54011;50.772;7.730;2023-06-10T07:42:00;28.35;44.86
67093;SHT31;54011;50.772;7.730;2023-06-10T07:44:26;28.18;45.11
67093;SHT31;54011;50.772;7.730;2023-06-10T07:46:51;28.32;44.45
67093;SHT31;54011;50.772;7.730;2023-06-10T07:49:17;28.95;43.89
67093;SHT31;54011;50.772;7.730;2023-06-10T07:51:43;28.83;43.87
67093;SHT31;54011;50.772;7.730;2023-06-10T07:54:09;29.02;43.11
67093;SHT31;54011;50.772;7.730;2023-06-10T07:56:35;29.06;43.87
67093;SHT31;54011;50.772;7.730;2023-06-10T07:59:04;29.20;43.28
67093;SHT31;54011;50.772;7.730;2023-06-10T08:01:34;29.11;43.47
67093;SHT31;54011;50.772;7.730;2023-06-10T08:04:01;29.45;43.14
67093;SHT31;54011;50.772;7.730;2023-06-10T08:06:27;28.73;43.47
67093;SHT31;54011;50.772;7.730;2023-06-10T08:08:52;29.10;43.60
67093;SHT31;54011;50.772;7.730;2023-06-10T08:11:17;29.08;42.74
67093;SHT31;54011;50.772;7.730;2023-06-10T08:13:43;29.37;42.12
67093;SHT31;54011;50.772;7.730;2023-06-10T08:16:08;29.59;42.52
67093;SHT31;54011;50.772;7.730;2023-06-10T08:18:34;29.98;41.07
67093;SHT31;54011;50.772;7.730;2023-06-10T08:20:59;30.06;41.21
67093;SHT31;54011;50.772;7.730;2023-06-10T08:23:25;29.99;41.09
67093;SHT31;54011;50.772;7.730;2023-06-10T08:25:50;30.06;41.00
67093;SHT31;54011;50.772;7.730;2023-06-10T08:28:18;30.27;41.25
67093;SHT31;54011;50.772;7.730;2023-06-10T08:30:43;30.37;40.66
67093;SHT31;54011;50.772;7.730;2023-06-10T08:33:09;30.84;40.53
67093;SHT31;54011;50.772;7.730;2023-06-10T08:35:35;31.11;39.17
67093;SHT31;54011;50.772;7.730;2023-06-10T08:38:00;30.94;39.45
67093;SHT31;54011;50.772;7.730;2023-06-10T08:40:27;31.24;39.10
67093;SHT31;54011;50.772;7.730;2023-06-10T08:43:01;30.91;39.15
67093;SHT31;54011;50.772;7.730;2023-06-10T08:45:30;31.28;39.01
67093;SHT31;54011;50.772;7.730;2023-06-10T08:47:57;31.69;38.43
67093;SHT31;54011;50.772;7.730;2023-06-10T08:50:23;31.35;38.50
67093;SHT31;54011;50.772;7.730;2023-06-10T08:52:51;31.52;38.16
67093;SHT31;54011;50.772;7.730;2023-06-10T08:55:24;32.06;38.34
67093;SHT31;54011;50.772;7.730;2023-06-10T08:57:51;31.61;38.01
67093;SHT31;54011;50.772;7.730;2023-06-10T09:00:18;32.19;37.23
67093;SHT31;54011;50.772;7.730;2023-06-10T09:02:43;32.51;37.75
67093;SHT31;54011;50.772;7.730;2023-06-10T09:05:10;32.72;36.87
67093;SHT31;54011;50.772;7.730;2023-06-10T09:07:36;32.75;36.54
67093;SHT31;54011;50.772;7.730;2023-06-10T09:10:03;32.51;37.21
67093;SHT31;54011;50.772;7.730;2023-06-10T09:12:30;32.54;36.68
67093;SHT31;54011;50.772;7.730;2023-06-10T09:14:55;33.32;35.72
67093;SHT31;54011;50.772;7.730;2023-06-10T09:17:22;33.09;36.05
67093;SHT31;54011;50.772;7.730;2023-06-10T09:19:47;32.74;35.77
67093;SHT31;54011;50.772;7.730;2023-06-10T09:22:14;33.36;35.59
67093;SHT31;54011;50.772;7.730;2023-06-10T09:24:40;32.40;35.63
67093;SHT31;54011;50.772;7.730;2023-06-10T09:27:07;32.96;35.64
67093;SHT31;54011;50.772;7.730;2023-06-10T09:29:53;32.92;35.10
67093;SHT31;54011;50.772;7.730;2023-06-10T09:32:19;33.53;34.20
67093;SHT31;54011;50.772;7.730;2023-06-10T09:34:45;33.32;34.41
67093;SHT31;54011;50.772;7.730;2023-06-10T09:37:11;33.39;34.41
67093;SHT31;54011;50.772;7.730;2023-06-10T09:39:40;34.05;33.04
67093;SHT31;54011;50.772;7.730;2023-06-10T09:42:16;34.20;33.20
67093;SHT31;54011;50.772;7.730;2023-06-10T09:44:49;33.71;33.27
67093;SHT31;54011;50.772;7.730;2023-06-10T09:47:20;34.65;32.81
67093;SHT31;54011;50.772;7.730;2023-06-10T09:49:47;34.52;32.08
67093;SHT31;54011;50.772;7.730;2023-06-10T09:52:12;35.00;31.02
67093;SHT31;54011;50.772;7.730;2023-06-10T09:54:39;35.07;30.67
67093;SHT31;54011;50.772;7.730;2023-06-10T09:57:08;34.24;32.09
67093;SHT31;54011;50.772;7.730;2023-06-10T09:59:37;34.25;31.91
67093;SHT31;54011;50.772;7.730;2023-06-10T10:02:03;34.52;31.68
67093;SHT31;54011;50.772;7.730;2023-06-10T10:04:30;34.86;30.65
67093;SHT31;54011;50.772;7.730;2023-06-10T10:06:56;34.45;31.25
67093;SHT31;54011;50.772;7.730;2023-06-10T10:09:22;34.80;31.53
67093;SHT31;54011;50.772;7.730;2023-06-10T10:11:48;35.14;30.21
67093;SHT31;54011;50.772;7.730;2023-06-10T10:14:15;35.10;29.88
67093;SHT31;54011;50.772;7.730;2023-06-10T10:16:45;35.13;30.35
67093;SHT31;54011;50.772;7.730;2023-06-10T10:19:27;35.25;30.02
67093;SHT31;54011;50.772;7.730;2023-06-10T10:21:54;35.39;29.63
67093;SHT31;54011;50.772;7.730;2023-06-10T10:24:27;35.11;30.06
67093;SHT31;54011;50.772;7.730;2023-06-10T10:26:59;35.99;29.89
67093;SHT31;54011;50.772;7.730;2023-06-10T10:29:30;36.15;29.63
67093;SHT31;54011;50.772;7.730;2023-06-10T10:31:59;36.04;29.16
67093;SHT31;54011;50.772;7.730;2023-06-10T10:34:35;35.68;30.14
67093;SHT31;54011;50.772;7.730;2023-06-10T10:37:02;35.10;30.04
67093;SHT31;54011;50.772;7.730;2023-06-10T10:39:28;36.56;28.67
67093;SHT31;54011;50.772;7.730;2023-06-10T10:41:55;36.86;28.77
67093;SHT31;54011;50.772;7.730;2023-06-10T10:44:22;36.26;28.74
67093;SHT31;54011;50.772;7.730;2023-06-10T10:46:50;36.96;28.78
67093;SHT31;54011;50.772;7.730;2023-06-10T10:49:16;35.84;29.85
67093;SHT31;54011;50.772;7.730;2023-06-10T10:52:00;37.08;28.08
67093;SHT31;54011;50.772;7.730;2023-06-10T10:54:35;36.86;28.63
67093;SHT31;54011;50.772;7.730;2023-06-10T11:05:02;37.14;27.14
67093;SHT31;54011;50.772;7.730;2023-06-10T11:07:34;37.64;27.26
67093;SHT31;54011;50.772;7.730;2023-06-10T11:15:13;37.95;26.33
67093;SHT31;54011;50.772;7.730;2023-06-10T11:18:19;37.69;27.12
67093;SHT31;54011;50.772;7.730;2023-06-10T11:20:50;37.88;27.39
67093;SHT31;54011;50.772;7.730;2023-06-10T11:31:40;34.34;30.01
67093;SHT31;54011;50.772;7.730;2023-06-10T11:34:06;35.06;29.61
67093;SHT31;54011;50.772;7.730;2023-06-10T11:36:41;33.77;31.05
67093;SHT31;54011;50.772;7.730;2023-06-10T11:39:08;34.44;30.17
67093;SHT31;54011;50.772;7.730;2023-06-10T11:41:35;35.29;29.64
67093;SHT31;54011;50.772;7.730;2023-06-10T11:44:13;34.89;30.59
67093;SHT31;54011;50.772;7.730;2023-06-10T11:46:39;33.94;31.16
67093;SHT31;54011;50.772;7.730;2023-06-10T11:49:06;35.10;30.70
67093;SHT31;54011;50.772;7.730;2023-06-10T11:51:37;36.86;28.74
67093;SHT31;54011;50.772;7.730;2023-06-10T11:54:03;37.41;28.67
67093;SHT31;54011;50.772;7.730;2023-06-10T11:56:30;38.02;28.59
67093;SHT31;54011;50.772;7.730;2023-06-10T11:58:58;37.21;28.86
67093;SHT31;54011;50.772;7.730;2023-06-10T12:01:25;37.08;28.68
67093;SHT31;54011;50.772;7.730;2023-06-10T12:04:04;36.84;29.66
67093;SHT31;54011;50.772;7.730;2023-06-10T12:06:43;37.37;28.64
67093;SHT31;54011;50.772;7.730;2023-06-10T12:09:18;36.09;30.08
67093;SHT31;54011;50.772;7.730;2023-06-10T12:11:45;37.42;28.66
67093;SHT31;54011;50.772;7.730;2023-06-10T12:14:11;35.67;29.64
67093;SHT31;54011;50.772;7.730;2023-06-10T12:16:38;37.31;28.93
67093;SHT31;54011;50.772;7.730;2023-06-10T12:19:04;37.18;28.63
67093;SHT31;54011;50.772;7.730;2023-06-10T12:21:32;37.37;28.66
67093;SHT31;54011;50.772;7.730;2023-06-10T12:24:10;38.17;27.32
67093;SHT31;54011;50.772;7.730;2023-06-10T12:26:41;38.36;27.83
67093;SHT31;54011;50.772;7.730;2023-06-10T12:29:22;38.36;27.21
67093;SHT31;54011;50.772;7.730;2023-06-10T12:32:03;39.48;26.15
67093;SHT31;54011;50.772;7.730;2023-06-10T12:34:35;37.23;27.76
67093;SHT31;54011;50.772;7.730;2023-06-10T12:37:03;38.22;27.55
67093;SHT31;54011;50.772;7.730;2023-06-10T12:39:30;38.54;27.49
67093;SHT31;54011;50.772;7.730;2023-06-10T12:41:57;38.80;26.09
67093;SHT31;54011;50.772;7.730;2023-06-10T12:44:33;38.81;27.04
67093;SHT31;54011;50.772;7.730;2023-06-10T12:47:00;39.02;26.28
67093;SHT31;54011;50.772;7.730;2023-06-10T12:49:26;39.72;25.47
67093;SHT31;54011;50.772;7.730;2023-06-10T12:51:52;38.67;26.01
67093;SHT31;54011;50.772;7.730;2023-06-10T12:54:17;38.59;25.58
67093;SHT31;54011;50.772;7.730;2023-06-10T12:56:43;39.37;25.09
67093;SHT31;54011;50.772;7.730;2023-06-10T12:59:08;39.73;24.46
67093;SHT31;54011;50.772;7.730;2023-06-10T13:01:34;39.74;25.53
67093;SHT31;54011;50.772;7.730;2023-06-10T13:03:59;40.19;24.71
67093;SHT31;54011;50.772;7.730;2023-06-10T13:06:25;39.69;24.92
67093;SHT31;54011;50.772;7.730;2023-06-10T13:08:51;39.10;25.37
67093;SHT31;54011;50.772;7.730;2023-06-10T13:11:17;38.26;26.27
67093;SHT31;54011;50.772;7.730;2023-06-10T13:13:43;38.73;25.92
67093;SHT31;54011;50.772;7.730;2023-06-10T13:16:09;39.48;25.33
67093;SHT31;54011;50.772;7.730;2023-06-10T13:18:34;39.62;24.78
67093;SHT31;54011;50.772;7.730;2023-06-10T13:21:06;38.83;25.32
67093;SHT31;54011;50.772;7.730;2023-06-10T13:23:34;37.95;26.33
67093;SHT31;54011;50.772;7.730;2023-06-10T13:25:59;39.73;25.22
67093;SHT31;54011;50.772;7.730;2023-06-10T13:28:25;40.07;25.51
67093;SHT31;54011;50.772;7.730;2023-06-10T13:30:50;39.92;24.91
67093;SHT31;54011;50.772;7.730;2023-06-10T13:33:16;40.20;25.31
67093;SHT31;54011;50.772;7.730;2023-06-10T13:35:41;38.98;25.76
67093;SHT31;54011;50.772;7.730;2023-06-10T13:38:07;39.85;24.84
67093;SHT31;54011;50.772;7.730;2023-06-10T13:40:33;39.15;24.83
67093;SHT31;54011;50.772;7.730;2023-06-10T13:42:59;39.66;25.03
67093;SHT31;54011;50.772;7.730;2023-06-10T13:45:26;39.93;24.55
67093;SHT31;54011;50.772;7.730;2023-06-10T13:47:51;40.31;24.53
67093;SHT31;54011;50.772;7.730;2023-06-10T13:50:17;39.73;25.57
67093;SHT31;54011;50.772;7.730;2023-06-10T13:52:44;38.94;25.42
67093;SHT31;54011;50.772;7.730;2023-06-10T13:55:09;37.20;27.68
67093;SHT31;54011;50.772;7.730;2023-06-10T13:57:35;36.45;27.48
67093;SHT31;54011;50.772;7.730;2023-06-10T14:00:01;35.23;28.67
67093;SHT31;54011;50.772;7.730;2023-06-10T14:02:29;35.00;29.09
67093;SHT31;54011;50.772;7.730;2023-06-10T14:04:55;34.61;29.42
67093;SHT31;54011;50.772;7.730;2023-06-10T14:07:21;34.66;29.21
67093;SHT31;54011;50.772;7.730;2023-06-10T14:09:46;36.17;27.95
67093;SHT31;54011;50.772;7.730;2023-06-10T14:12:11;37.25;26.70
67093;SHT31;54011;50.772;7.730;2023-06-10T14:14:37;39.52;26.64
67093;SHT31;54011;50.772;7.730;2023-06-10T14:17:03;40.09;24.92
67093;SHT31;54011;50.772;7.730;2023-06-10T14:19:30;39.65;26.10
67093;SHT31;54011;50.772;7.730;2023-06-10T14:21:57;39.43;26.66
67093;SHT31;54011;50.772;7.730;2023-06-10T14:24:22;40.30;24.89
67093;SHT31;54011;50.772;7.730;2023-06-10T14:26:48;40.00;26.05
67093;SHT31;54011;50.772;7.730;2023-06-10T14:29:13;39.72;26.00
67093;SHT31;54011;50.772;7.730;2023-06-10T14:31:40;38.88;26.53
67093;SHT31;54011;50.772;7.730;2023-06-10T14:34:05;35.98;29.28
67093;SHT31;54011;50.772;7.730;2023-06-10T14:36:33;36.25;28.77
67093;SHT31;54011;50.772;7.730;2023-06-10T14:38:59;35.80;29.25
67093;SHT31;54011;50.772;7.730;2023-06-10T14:41:24;37.44;28.16
67093;SHT31;54011;50.772;7.730;2023-06-10T14:43:51;38.81;26.97
67093;SHT31;54011;50.772;7.730;2023-06-10T14:46:17;38.83;26.09
67093;SHT31;54011;50.772;7.730;2023-06-10T14:48:43;39.17;26.15
67093;SHT31;54011;50.772;7.730;2023-06-10T14:51:09;38.56;26.12
67093;SHT31;54011;50.772;7.730;2023-06-10T14:53:34;38.19;26.61
67093;SHT31;54011;50.772;7.730;2023-06-10T14:56:00;39.53;25.11
67093;SHT31;54011;50.772;7.730;2023-06-10T14:58:25;40.36;24.93
67093;SHT31;54011;50.772;7.730;2023-06-10T15:00:51;40.00;24.89
67093;SHT31;54011;50.772;7.730;2023-06-10T15:03:17;41.03;24.73
67093;SHT31;54011;50.772;7.730;2023-06-10T15:05:44;40.37;24.18
67093;SHT31;54011;50.772;7.730;2023-06-10T15:08:11;40.21;24.49
67093;SHT31;54011;50.772;7.730;2023-06-10T15:10:36;40.55;24.18
67093;SHT31;54011;50.772;7.730;2023-06-10T15:13:03;40.58;24.26
67093;SHT31;54011;50.772;7.730;2023-06-10T15:15:30;41.02;23.97
67093;SHT31;54011;50.772;7.730;2023-06-10T15:17:55;40.72;24.37
67093;SHT31;54011;50.772;7.730;2023-06-10T15:20:22;38.63;26.51
67093;SHT31;54011;50.772;7.730;2023-06-10T15:22:47;39.94;24.89
67093;SHT31;54011;50.772;7.730;2023-06-10T15:25:14;40.39;24.86
67093;SHT31;54011;50.772;7.730;2023-06-10T15:27:40;40.16;24.85
67093;SHT31;54011;50.772;7.730;2023-06-10T15:30:06;41.01;24.26
67093;SHT31;54011;50.772;7.730;2023-06-10T15:32:31;40.29;24.13
67093;SHT31;54011;50.772;7.730;2023-06-10T15:34:57;39.35;24.70
67093;SHT31;54011;50.772;7.730;2023-06-10T15:37:22;39.90;24.16
67093;SHT31;54011;50.772;7.730;2023-06-10T15:39:48;40.14;24.83
67093;SHT31;54011;50.772;7.730;2023-06-10T15:42:18;39.39;25.74
67093;SHT31;54011;50.772;7.730;2023-06-10T15:44:44;39.96;25.33
67093;SHT31;54011;50.772;7.730;2023-06-10T15:47:11;40.41;24.80
67093;SHT31;54011;50.772;7.730;2023-06-10T15:49:37;41.19;23.25
67093;SHT31;54011;50.772;7.730;2023-06-10T15:52:06;40.10;23.84
67093;SHT31;54011;50.772;7.730;2023-06-10T15:54:31;40.48;22.32
67093;SHT31;54011;50.772;7.730;2023-06-10T15:56:57;40.91;22.73